• Join FlightAware (Why Join?)
  • Login
  • US Flag 
08:41PM EDT


 

Airport Tracker/Info


-or-


 

Live Flight TrackerFlight Track Log ✈ VH-YJA ✈ 17-May-2013 ✈ YHSM - YMEN / MEB

Flight Track Log - Related Links

Times and Time Zones

All times are in EDT time to prevent confusion due to time zone crossing. See the VH-YJA flight status page for this flight to view local times or setup timezone preferences in your user account.

Time Position Orientation Groundspeed Altitude Reporting Facility
EDT Latitude Longitude Course Direction KTS MPH feet Rate Location/Type
06:15AM -36.7393 142.2660 151° Southeast 9,000  Level Aus ATC (Calculated)
06:16AM -36.7393 142.2660 151° Southeast 9,000 -1,620 Level Aus ATC (Calculated)
06:17AM -36.7448 142.2699 133° Southeast 135 155 6,100 -1,800 Descending Aus ATC (RADAR)
06:18AM -36.7579 142.2875 133° Southeast 139 160 6,700 1,200 Climbing Aus ATC (RADAR)
06:18AM -36.7758 142.3106 134° Southeast 141 162 7,500 1,260 Climbing Aus ATC (RADAR)
06:19AM -36.7903 142.3331 129° Southeast 145 167 8,300 1,200 Climbing Aus ATC (RADAR)
06:19AM -36.8025 142.3529 128° Southeast 146 168 8,800 360 Climbing Aus ATC (RADAR)
06:20AM -36.8334 142.3998 129° Southeast 188 216 8,900 120 Climbing Aus ATC (RADAR)
06:21AM -36.8481 142.4216 130° Southeast 193 222 9,000 60 Climbing Aus ATC (RADAR)
06:21AM -36.8680 142.4505 131° Southeast 188 216 9,000  Level Aus ATC (RADAR)
06:22AM -36.8954 142.4879 133° Southeast 193 222 9,000  Level Aus ATC (RADAR)
06:23AM -36.9157 142.5174 131° Southeast 192 221 9,000  Level Aus ATC (RADAR)
06:23AM -36.9369 142.5465 132° Southeast 192 221 9,000  Level Aus ATC (RADAR)
06:24AM -36.9545 142.5721 131° Southeast 193 222 9,000  Level Aus ATC (RADAR)
06:24AM -36.9738 142.6020 129° Southeast 190 219 9,000  Level Aus ATC (RADAR)
06:25AM -37.0028 142.6453 130° Southeast 192 221 9,000  Level Aus ATC (RADAR)
06:26AM -37.0170 142.6668 130° Southeast 191 220 9,000  Level Aus ATC (RADAR)
06:26AM -37.0298 142.6885 126° Southeast 188 216 9,000  Level Aus ATC (RADAR)
06:27AM -37.0502 142.7192 130° Southeast 195 224 9,000  Level Aus ATC (RADAR)
06:27AM -37.0729 142.7540 129° Southeast 191 220 9,000  Level Aus ATC (RADAR)
06:28AM -37.0926 142.7844 129° Southeast 192 221 9,000  Level Aus ATC (RADAR)
06:28AM -37.1109 142.8154 126° Southeast 189 217 9,000  Level Aus ATC (RADAR)
06:29AM -37.1301 142.8461 128° Southeast 190 219 9,000  Level Aus ATC (RADAR)
06:30AM -37.1509 142.8772 130° Southeast 196 226 9,000  Level Aus ATC (RADAR)
06:30AM -37.1803 142.9254 127° Southeast 188 216 9,000  Level Aus ATC (RADAR)
06:31AM -37.1938 142.9479 127° Southeast 190 219 9,000  Level Aus ATC (RADAR)
06:31AM -37.2129 142.9789 128° Southeast 191 220 9,000  Level Aus ATC (RADAR)
06:32AM -37.2368 143.0188 127° Southeast 189 217 9,000  Level Aus ATC (RADAR)
06:33AM -37.2569 143.0488 130° Southeast 189 217 9,000  Level Aus ATC (RADAR)
06:33AM -37.2756 143.0800 127° Southeast 190 219 9,000  Level Aus ATC (RADAR)
06:34AM -37.2955 143.1107 129° Southeast 193 222 9,000  Level Aus ATC (RADAR)
06:35AM -37.3149 143.1415 128° Southeast 191 220 9,000  Level Aus ATC (RADAR)
06:36AM -37.3497 143.1991 127° Southeast 189 217 9,000  Level Aus ATC (RADAR)
06:36AM -37.3637 143.2215 128° Southeast 191 220 9,000  Level Aus ATC (RADAR)
06:37AM -37.3840 143.2515 130° Southeast 191 220 9,000  Level Aus ATC (RADAR)
06:37AM -37.4067 143.2859 130° Southeast 191 220 9,000  Level Aus ATC (RADAR)
06:38AM -37.4250 143.3168 127° Southeast 188 216 9,000  Level Aus ATC (RADAR)
06:39AM -37.4474 143.3514 129° Southeast 189 217 9,000  Level Aus ATC (RADAR)
06:39AM -37.4644 143.3776 129° Southeast 190 219 9,000  Level Aus ATC (RADAR)
06:40AM -37.4835 143.4082 128° Southeast 190 219 9,000  Level Aus ATC (RADAR)
06:41AM -37.5138 143.4554 129° Southeast 187 215 9,000  Level Aus ATC (RADAR)
06:41AM -37.5276 143.4769 129° Southeast 188 216 9,000  Level Aus ATC (RADAR)
06:42AM -37.5462 143.5072 128° Southeast 187 215 9,000  Level Aus ATC (RADAR)
06:42AM -37.5681 143.5414 129° Southeast 185 213 9,000  Level Aus ATC (RADAR)
06:43AM -37.5868 143.5710 129° Southeast 183 211 9,000  Level Aus ATC (RADAR)
06:43AM -37.6059 143.6008 129° Southeast 185 213 9,000  Level Aus ATC (RADAR)
06:44AM -37.6219 143.6262 129° Southeast 185 213 9,000  Level Aus ATC (RADAR)
06:44AM -37.6412 143.6566 129° Southeast 189 217 9,000  Level Aus ATC (RADAR)
06:45AM -37.6597 143.6870 128° Southeast 187 215 9,000  Level Aus ATC (RADAR)
06:46AM -37.6843 143.7257 129° Southeast 186 214 9,000  Level Aus ATC (RADAR)
06:46AM -37.6979 143.7472 129° Southeast 186 214 9,000  Level Aus ATC (RADAR)
06:47AM -37.7107 143.7828 114° Southeast 198 228 9,000  Level Aus ATC (RADAR)
06:47AM -37.7139 143.8288 95° East 197 227 9,000  Level Aus ATC (RADAR)
06:48AM -37.7179 143.8694 97° East 198 228 9,000  Level Aus ATC (RADAR)
06:49AM -37.7219 143.9095 97° East 195 224 9,000  Level Aus ATC (RADAR)
06:49AM -37.7259 143.9449 98° East 199 229 9,000  Level Aus ATC (RADAR)
06:50AM -37.7296 143.9851 97° East 198 228 9,000  Level Aus ATC (RADAR)
06:50AM -37.7346 144.0319 98° East 200 230 9,000  Level Aus ATC (RADAR)
06:51AM -37.7384 144.0725 97° East 199 229 9,000  Level Aus ATC (RADAR)
06:52AM -37.7419 144.1130 96° East 198 228 9,000  Level Aus ATC (RADAR)
06:52AM -37.7448 144.1477 96° East 198 228 9,000  Level Aus ATC (RADAR)
06:53AM -37.7486 144.1881 97° East 198 228 9,000  Level Aus ATC (RADAR)
06:53AM -37.7525 144.2283 97° East 196 226 9,000 -480 Level Aus ATC (RADAR)
06:54AM -37.7569 144.2709 98° East 207 238 8,500 -900 Descending Aus ATC (RADAR)
06:54AM -37.7609 144.3160 96° East 216 249 8,000 -960 Descending Aus ATC (RADAR)
06:55AM -37.7650 144.3610 97° East 216 249 7,400 -900 Descending Aus ATC (RADAR)
06:56AM -37.7702 144.4185 97° East 215 247 6,800 -900 Descending Aus ATC (RADAR)
06:56AM -37.7741 144.4565 97° East 215 247 6,300 -900 Descending Aus ATC (RADAR)
06:57AM -37.7783 144.4944 98° East 215 247 5,900 -900 Descending Aus ATC (RADAR)
06:58AM -37.7855 144.5552 98° East 207 238 5,100 -1,020 Descending Aus ATC (RADAR)
06:58AM -37.7902 144.5976 98° East 204 235 4,500 -900 Descending Aus ATC (RADAR)
06:59AM -37.7972 144.6512 99° East 201 231 3,900 -900 Descending Aus ATC (RADAR)
06:59AM -37.8021 144.6864 100° East 200 230 3,400 -900 Descending Aus ATC (RADAR)
07:00AM -37.8060 144.7152 100° East 196 226 3,100 -420 Descending Aus ATC (RADAR)
07:01AM -37.8137 144.7693 100° East 183 211 2,900 -180 Descending Aus ATC (RADAR)
07:01AM -37.8182 144.7991 101° East 172 198 2,900 -600 Level Aus ATC (RADAR)
07:02AM -37.8059 144.8342 66° East 187 215 2,300 -720 Descending Aus ATC (RADAR)
07:02AM -37.7885 144.8673 56° Northeast 191 220 2,100 -240 Descending Aus ATC (RADAR)
07:03AM -37.7762 144.8909 57° Northeast 163 188 2,100 -480 Level Aus ATC (RADAR)
07:03AM -37.7649 144.9159 60° Northeast 142 163 1,600 -780 Descending Aus ATC (RADAR)
07:04AM -37.7526 144.9398 57° Northeast 135 155 1,200 -660 Descending Aus ATC (RADAR)
07:04AM -37.7368 144.9388 357° North 117 135 900 -660 Descending Aus ATC (RADAR)
07:05AM -37.7295 144.9225 299° West 95 109 500 -720 Descending Aus ATC (RADAR)